Time;durP1;ratioP1;P1;durP2;ratioP2;P2;SDS_P1;SDS_P2;PMS_P1;PMS_P2;Temp;Humidity;BMP_temperature;BMP_pressure;BME280_temperature;BME280_humidity;BME280_pressure;Samples;Min_cycle;Max_cycle;Signal;HPM_P1;HPM_P2
2023/04/26 00:00:35;;;;;;;;;13.50;12.25;;;;;-145.45;100.00;57426.63;6249229;22;46563;-73
2023/04/26 00:03:00;;;;;;;;;15.25;14.00;;;;;-145.45;100.00;57426.63;6248898;22;48142;-73
2023/04/26 00:05:27;;;;;;;;;13.75;13.75;;;;;-145.45;100.00;57426.63;6277445;22;45259;-74
2023/04/26 00:07:53;;;;;;;;;11.75;11.75;;;;;-145.45;100.00;57426.63;6277264;22;45169;-73
2023/04/26 00:10:18;;;;;;;;;17.75;14.00;;;;;-145.45;100.00;57426.63;6277599;22;45401;-73
2023/04/26 00:12:43;;;;;;;;;15.75;12.25;;;;;-145.45;100.00;57426.63;6249276;22;47043;-73
2023/04/26 00:15:09;;;;;;;;;17.25;13.50;;;;;-145.45;100.00;57426.63;6249808;22;45331;-73
2023/04/26 00:17:35;;;;;;;;;16.25;12.50;;;;;-145.45;100.00;57426.63;6276646;22;45260;-73
2023/04/26 00:20:01;;;;;;;;;21.25;16.00;;;;;-145.45;100.00;57426.63;6277247;22;45487;-73
2023/04/26 00:22:26;;;;;;;;;15.00;11.75;;;;;-145.45;100.00;57426.63;6276809;22;46341;-73
2023/04/26 00:24:52;;;;;;;;;13.25;11.50;;;;;-145.45;100.00;57426.63;6277208;22;45275;-73
2023/04/26 00:27:17;;;;;;;;;13.25;11.25;;;;;-145.45;100.00;57426.63;6249088;22;44721;-73
2023/04/26 00:29:42;;;;;;;;;16.25;12.25;;;;;-145.45;100.00;57426.63;6276992;22;45427;-73
2023/04/26 00:32:08;;;;;;;;;11.50;11.50;;;;;-145.45;100.00;57426.63;6248513;22;45336;-73
2023/04/26 00:34:37;;;;;;;;;14.00;12.50;;;;;-145.45;100.00;57426.63;6277165;22;45300;-73
2023/04/26 00:37:03;;;;;;;;;16.75;12.00;;;;;-145.45;100.00;57426.63;6277638;22;45257;-73
2023/04/26 00:39:29;;;;;;;;;15.00;13.25;;;;;-145.45;100.00;57426.63;6277213;22;45269;-73
2023/04/26 00:41:54;;;;;;;;;13.50;13.50;;;;;-145.45;100.00;57426.63;6276841;22;46473;-73
2023/04/26 00:44:20;;;;;;;;;14.50;14.50;;;;;-145.45;100.00;57426.63;6277103;22;45320;-73
2023/04/26 00:46:45;;;;;;;;;15.25;14.00;;;;;-145.45;100.00;57426.63;6248321;22;45355;-73
2023/04/26 00:49:15;;;;;;;;;12.00;9.25;;;;;-145.45;100.00;57426.63;6276852;22;45274;-73
2023/04/26 00:51:42;;;;;;;;;10.25;10.00;;;;;-145.45;100.00;57426.63;6276581;22;46229;-73
2023/04/26 00:54:08;;;;;;;;;10.00;10.00;;;;;-145.45;100.00;57426.63;6276975;22;45254;-73
2023/04/26 00:56:35;;;;;;;;;18.25;12.25;;;;;-145.45;100.00;57426.63;6277416;22;45379;-73
2023/04/26 00:59:02;;;;;;;;;11.25;11.25;;;;;-145.45;100.00;57426.63;6248858;22;45340;-73
2023/04/26 01:01:28;;;;;;;;;11.25;8.50;;;;;-145.45;100.00;57426.63;6276988;22;45340;-73
2023/04/26 01:03:53;;;;;;;;;11.25;10.25;;;;;-145.45;100.00;57426.63;6275855;22;45307;-73
2023/04/26 01:06:19;;;;;;;;;15.00;10.00;;;;;-145.45;100.00;57426.63;6277401;22;45263;-73
2023/04/26 01:08:45;;;;;;;;;10.25;10.00;;;;;-145.45;100.00;57426.63;6248530;22;47003;-74
2023/04/26 01:11:11;;;;;;;;;12.50;11.00;;;;;-145.45;100.00;57426.63;6276965;22;45492;-73
2023/04/26 01:13:37;;;;;;;;;8.50;8.25;;;;;-145.45;100.00;57426.63;6249227;22;45205;-73
2023/04/26 01:16:03;;;;;;;;;17.25;11.25;;;;;-145.45;100.00;57426.63;6277317;22;45293;-73
2023/04/26 01:18:29;;;;;;;;;16.00;14.50;;;;;-145.45;100.00;57426.63;6248231;22;46070;-73
2023/04/26 01:20:55;;;;;;;;;14.25;13.50;;;;;-145.45;100.00;57426.63;6248526;22;46442;-73
2023/04/26 01:23:21;;;;;;;;;12.25;7.50;;;;;-145.45;100.00;57426.63;6276344;22;45362;-73
2023/04/26 01:25:47;;;;;;;;;14.75;12.00;;;;;-145.45;100.00;57426.63;6276789;22;45487;-73
2023/04/26 01:28:12;;;;;;;;;9.25;9.25;;;;;-145.45;100.00;57426.63;6276675;22;45294;-73
2023/04/26 01:30:38;;;;;;;;;14.00;10.50;;;;;-145.45;100.00;57426.63;6248951;22;46351;-73
2023/04/26 01:33:03;;;;;;;;;14.00;13.00;;;;;-145.45;100.00;57426.63;6275570;22;45232;-73
2023/04/26 01:35:28;;;;;;;;;19.50;12.50;;;;;-145.45;100.00;57426.63;6277082;22;44769;-73
2023/04/26 01:37:54;;;;;;;;;13.50;12.75;;;;;-145.45;100.00;57426.63;6248867;22;47108;-73
2023/04/26 01:40:20;;;;;;;;;12.25;10.00;;;;;-145.45;100.00;57426.63;6276545;22;45197;-73
2023/04/26 01:42:45;;;;;;;;;8.50;8.25;;;;;-145.45;100.00;57426.63;6249179;22;45183;-73
2023/04/26 01:45:11;;;;;;;;;11.25;11.00;;;;;-145.45;100.00;57426.63;6278462;22;45111;-73
2023/04/26 01:47:36;;;;;;;;;13.00;10.25;;;;;-145.45;100.00;57426.63;6277489;22;45170;-73
2023/04/26 01:50:01;;;;;;;;;8.50;8.00;;;;;-145.45;100.00;57426.63;6250085;22;46993;-73
2023/04/26 01:52:27;;;;;;;;;11.00;10.00;;;;;-145.45;100.00;57426.63;6278183;22;44599;-73
2023/04/26 01:54:52;;;;;;;;;12.50;9.75;;;;;-145.45;100.00;57426.63;6249915;22;45336;-73
2023/04/26 01:57:18;;;;;;;;;14.25;9.00;;;;;-145.45;100.00;57426.63;6277848;22;45361;-73
2023/04/26 01:59:43;;;;;;;;;15.00;11.00;;;;;-145.45;100.00;57426.63;6249841;22;46892;-74
2023/04/26 02:02:08;;;;;;;;;12.00;8.50;;;;;-145.45;100.00;57426.63;6249737;22;45169;-73
2023/04/26 02:04:34;;;;;;;;;12.00;9.25;;;;;-145.45;100.00;57426.63;6277918;22;45734;-73
2023/04/26 02:06:59;;;;;;;;;10.00;8.75;;;;;-145.45;100.00;57426.63;6277854;22;45476;-73
2023/04/26 02:09:25;;;;;;;;;9.75;9.00;;;;;-145.45;100.00;57426.63;6278129;22;45262;-73
2023/04/26 02:11:50;;;;;;;;;11.50;9.00;;;;;-145.45;100.00;57426.63;6277354;22;45253;-73
2023/04/26 02:14:15;;;;;;;;;10.75;7.50;;;;;-145.45;100.00;57426.63;6278291;22;45338;-73
2023/04/26 02:16:41;;;;;;;;;10.50;9.00;;;;;-145.45;100.00;57426.63;6277691;22;45520;-73
2023/04/26 02:19:09;;;;;;;;;6.75;5.00;;;;;-145.45;100.00;57426.63;6277682;22;46198;-73
2023/04/26 02:21:50;;;;;;;;;13.25;11.75;;;;;-145.45;100.00;57426.63;6277897;22;45214;-73
2023/04/26 02:24:16;;;;;;;;;15.50;11.50;;;;;-145.45;100.00;57426.63;6250250;22;45316;-73
2023/04/26 02:26:41;;;;;;;;;10.75;9.50;;;;;-145.45;100.00;57426.63;6249320;22;51176;-73
2023/04/26 02:29:06;;;;;;;;;9.25;8.50;;;;;-145.45;100.00;57426.63;6250299;22;45823;-73
2023/04/26 02:31:32;;;;;;;;;13.75;10.00;;;;;-145.45;100.00;57426.63;6277694;22;48978;-73
2023/04/26 02:33:57;;;;;;;;;13.00;12.25;;;;;-145.45;100.00;57426.63;6277670;22;45188;-73
2023/04/26 02:36:22;;;;;;;;;13.75;11.75;;;;;-145.45;100.00;57426.63;6277966;22;49720;-73
2023/04/26 02:38:48;;;;;;;;;13.00;11.75;;;;;-145.45;100.00;57426.63;6249339;22;48042;-73
2023/04/26 02:41:13;;;;;;;;;12.75;12.75;;;;;-145.45;100.00;57426.63;6249608;22;45292;-73
2023/04/26 02:43:38;;;;;;;;;9.50;7.50;;;;;-145.45;100.00;57426.63;6277737;22;45284;-73
2023/04/26 02:46:06;;;;;;;;;13.50;10.00;;;;;-145.45;100.00;57426.63;6277330;22;52438;-73
2023/04/26 02:48:32;;;;;;;;;9.50;9.00;;;;;-145.45;100.00;57426.63;6276907;22;45993;-73
2023/04/26 02:50:58;;;;;;;;;8.25;7.25;;;;;-145.45;100.00;57426.63;6277811;22;45253;-73
2023/04/26 02:53:23;;;;;;;;;14.00;11.75;;;;;-145.45;100.00;57426.63;6277157;22;45292;-73
2023/04/26 02:55:48;;;;;;;;;10.00;10.00;;;;;-145.45;100.00;57426.63;6278148;22;45152;-73
2023/04/26 02:58:14;;;;;;;;;12.00;10.25;;;;;-145.45;100.00;57426.63;6277504;22;46320;-73
2023/04/26 03:00:45;;;;;;;;;8.75;8.75;;;;;-145.45;100.00;57426.63;6250072;22;45182;-72
2023/04/26 03:03:11;;;;;;;;;12.25;9.50;;;;;-145.45;100.00;57426.63;6277255;22;45245;-73
2023/04/26 03:05:36;;;;;;;;;11.25;9.75;;;;;-145.45;100.00;57426.63;6277829;22;45120;-73
2023/04/26 03:08:01;;;;;;;;;12.00;8.50;;;;;-145.45;100.00;57426.63;6277497;22;46465;-73
2023/04/26 03:10:27;;;;;;;;;12.50;11.50;;;;;-145.45;100.00;57426.63;6278309;22;45117;-73
2023/04/26 03:12:52;;;;;;;;;10.50;9.75;;;;;-145.45;100.00;57426.63;6277784;22;45097;-73
2023/04/26 03:15:17;;;;;;;;;14.25;12.50;;;;;-145.45;100.00;57426.63;6277867;22;45142;-73
2023/04/26 03:17:43;;;;;;;;;13.50;11.50;;;;;-145.45;100.00;57426.63;6276970;22;45375;-73
2023/04/26 03:20:09;;;;;;;;;14.00;10.50;;;;;-145.45;100.00;57426.63;6277878;22;45094;-73
2023/04/26 03:22:35;;;;;;;;;13.25;10.50;;;;;-145.45;100.00;57426.63;6277147;22;45287;-73
2023/04/26 03:25:00;;;;;;;;;13.00;10.00;;;;;-145.45;100.00;57426.63;6275880;22;45215;-73
2023/04/26 03:27:25;;;;;;;;;15.25;14.00;;;;;-145.45;100.00;57426.63;6276932;22;45297;-73
2023/04/26 03:29:51;;;;;;;;;10.50;9.00;;;;;-145.45;100.00;57426.63;6277486;22;45295;-73
2023/04/26 03:32:16;;;;;;;;;6.25;5.75;;;;;-145.45;100.00;57426.63;6248747;22;45247;-73
2023/04/26 03:34:41;;;;;;;;;14.25;13.00;;;;;-145.45;100.00;57426.63;6248441;22;45700;-73
2023/04/26 03:37:07;;;;;;;;;12.50;11.50;;;;;-145.45;100.00;57426.63;6277128;22;46107;-73
2023/04/26 03:39:32;;;;;;;;;10.50;10.50;;;;;-145.45;100.00;57426.63;6277616;22;45256;-73
2023/04/26 03:41:58;;;;;;;;;13.50;12.00;;;;;-145.45;100.00;57426.63;6249243;22;45316;-73
2023/04/26 03:44:23;;;;;;;;;14.00;12.75;;;;;-145.45;100.00;57426.63;6249568;22;45734;-73
2023/04/26 03:46:48;;;;;;;;;14.00;12.25;;;;;-145.45;100.00;57426.63;6277147;22;45359;-73
2023/04/26 03:49:14;;;;;;;;;14.25;10.50;;;;;-145.45;100.00;57426.63;6249655;22;45265;-73
2023/04/26 03:51:39;;;;;;;;;12.75;11.25;;;;;-145.45;100.00;57426.63;6277785;22;45212;-73
2023/04/26 03:54:05;;;;;;;;;18.25;15.00;;;;;-145.45;100.00;57426.63;6277387;22;45224;-73
2023/04/26 03:56:30;;;;;;;;;14.50;10.50;;;;;-145.45;100.00;57426.63;6277655;22;45252;-73
2023/04/26 03:58:55;;;;;;;;;17.25;15.50;;;;;-145.45;100.00;57426.63;6276863;22;50886;-73
2023/04/26 04:01:21;;;;;;;;;13.00;11.75;;;;;-145.45;100.00;57426.63;6249446;22;45290;-73
2023/04/26 04:03:46;;;;;;;;;12.25;12.00;;;;;-145.45;100.00;57426.63;6248522;22;46451;-73
2023/04/26 04:06:11;;;;;;;;;11.75;11.75;;;;;-145.45;100.00;57426.63;6276786;22;45294;-73
2023/04/26 04:08:37;;;;;;;;;17.75;14.00;;;;;-145.45;100.00;57426.63;6276888;22;45237;-73
2023/04/26 04:11:02;;;;;;;;;13.25;12.00;;;;;-145.45;100.00;57426.63;6277462;22;45078;-73
2023/04/26 04:13:27;;;;;;;;;12.00;12.00;;;;;-145.45;100.00;57426.63;6276941;22;45282;-73
2023/04/26 04:15:53;;;;;;;;;13.50;10.00;;;;;-145.45;100.00;57426.63;6276718;22;45167;-73
2023/04/26 04:18:18;;;;;;;;;10.00;7.75;;;;;-145.45;100.00;57426.63;6276753;22;45234;-73
2023/04/26 04:20:44;;;;;;;;;8.25;8.25;;;;;-145.45;100.00;57426.63;6248735;22;44746;-73
2023/04/26 04:23:10;;;;;;;;;14.50;14.00;;;;;-145.45;100.00;57426.63;6249244;22;45280;-73
2023/04/26 04:25:35;;;;;;;;;8.75;8.75;;;;;-145.45;100.00;57426.63;6276858;22;46784;-73
2023/04/26 04:28:02;;;;;;;;;12.50;11.75;;;;;-145.45;100.00;57426.63;6276933;22;45588;-73
2023/04/26 04:30:28;;;;;;;;;13.50;11.25;;;;;-145.45;100.00;57426.63;6277877;22;45219;-73
2023/04/26 04:32:54;;;;;;;;;16.75;13.50;;;;;-145.45;100.00;57426.63;6248314;22;45913;-73
2023/04/26 04:35:21;;;;;;;;;18.25;13.75;;;;;-145.45;100.00;57426.63;6248811;22;46960;-73
2023/04/26 04:37:48;;;;;;;;;12.00;12.00;;;;;-145.45;100.00;57426.63;6249011;22;45530;-73
2023/04/26 04:40:14;;;;;;;;;15.25;12.75;;;;;-145.45;100.00;57426.63;6275713;22;45216;-74
2023/04/26 04:42:40;;;;;;;;;13.75;13.75;;;;;-145.45;100.00;57426.63;6248920;22;45870;-74
2023/04/26 04:45:06;;;;;;;;;15.50;14.50;;;;;-145.45;100.00;57426.63;6277052;22;45449;-74
2023/04/26 04:47:32;;;;;;;;;12.25;12.25;;;;;-145.45;100.00;57426.63;6276301;22;45188;-74
2023/04/26 04:49:59;;;;;;;;;9.50;8.75;;;;;-145.45;100.00;57426.63;6249529;22;45462;-74
2023/04/26 04:52:24;;;;;;;;;15.25;10.00;;;;;-145.45;100.00;57426.63;6249143;22;47047;-75
2023/04/26 04:54:50;;;;;;;;;6.25;6.25;;;;;-145.45;100.00;57426.63;6276304;22;44898;-75
2023/04/26 04:57:15;;;;;;;;;12.00;12.00;;;;;-145.45;100.00;57426.63;6276650;22;45283;-76
2023/04/26 04:59:41;;;;;;;;;15.25;12.50;;;;;-145.45;100.00;57426.63;6277171;22;45164;-74
2023/04/26 05:02:06;;;;;;;;;14.75;12.00;;;;;-145.45;100.00;57426.63;6276581;22;45177;-75
2023/04/26 05:04:33;;;;;;;;;13.00;13.00;;;;;-145.45;100.00;57426.63;6276327;22;45219;-74
2023/04/26 05:06:59;;;;;;;;;16.75;11.75;;;;;-145.45;100.00;57426.63;6277050;22;45190;-75
2023/04/26 05:09:24;;;;;;;;;13.00;12.50;;;;;-145.45;100.00;57426.63;6276913;22;45320;-73
2023/04/26 05:11:49;;;;;;;;;16.50;12.25;;;;;-145.45;100.00;57426.63;6276685;22;45493;-74
2023/04/26 05:14:15;;;;;;;;;14.25;12.75;;;;;-145.45;100.00;57426.63;6276746;22;46462;-74
2023/04/26 05:16:40;;;;;;;;;17.25;7.75;;;;;-145.45;100.00;57426.63;6276747;22;45339;-73
2023/04/26 05:19:06;;;;;;;;;16.25;13.00;;;;;-145.45;100.00;57426.63;6277850;22;44677;-74
2023/04/26 05:21:32;;;;;;;;;15.75;14.00;;;;;-145.45;100.00;57426.63;6278331;22;45260;-74
2023/04/26 05:23:57;;;;;;;;;13.75;13.75;;;;;-145.45;100.00;57426.63;6277260;22;46825;-73
2023/04/26 05:26:22;;;;;;;;;15.50;14.75;;;;;-145.45;100.00;57426.63;6278000;22;45247;-74
2023/04/26 05:28:48;;;;;;;;;14.50;14.00;;;;;-145.45;100.00;57426.63;6277794;22;45334;-73
2023/04/26 05:31:13;;;;;;;;;22.25;14.00;;;;;-145.45;100.00;57426.63;6277606;22;47560;-73
2023/04/26 05:33:38;;;;;;;;;14.50;13.50;;;;;-145.45;100.00;57426.63;6276730;22;53159;-73
2023/04/26 05:36:04;;;;;;;;;14.75;13.00;;;;;-145.45;100.00;57426.63;6278062;22;45241;-74
2023/04/26 05:38:30;;;;;;;;;14.00;13.00;;;;;-145.45;100.00;57426.63;6249980;22;45287;-73
2023/04/26 05:40:55;;;;;;;;;13.75;12.50;;;;;-145.45;100.00;57426.63;6277612;22;45229;-74
2023/04/26 05:43:20;;;;;;;;;10.75;10.00;;;;;-145.45;100.00;57426.63;6250171;22;47095;-73
2023/04/26 05:45:50;;;;;;;;;15.50;13.00;;;;;-145.45;100.00;57426.63;6277980;22;45102;-73
2023/04/26 05:48:16;;;;;;;;;11.75;11.75;;;;;-145.45;100.00;57426.63;6250039;22;44690;-72
2023/04/26 05:50:41;;;;;;;;;17.50;15.25;;;;;-145.45;100.00;57426.63;6249514;22;46032;-73
2023/04/26 05:53:07;;;;;;;;;15.00;13.00;;;;;-145.45;100.00;57426.63;6277555;22;45233;-73
2023/04/26 05:55:32;;;;;;;;;17.75;16.25;;;;;-145.45;100.00;57426.63;6277648;22;45665;-73
2023/04/26 05:57:57;;;;;;;;;15.00;14.00;;;;;-145.45;100.00;57426.63;6277651;22;45287;-73
2023/04/26 06:00:23;;;;;;;;;16.50;15.00;;;;;-145.45;100.00;57426.63;6277869;22;45197;-72
2023/04/26 06:02:49;;;;;;;;;17.75;16.25;;;;;-145.45;100.00;57426.63;6249166;22;45952;-72
2023/04/26 06:05:14;;;;;;;;;15.00;14.00;;;;;-145.45;100.00;57426.63;6249516;22;45960;-73
2023/04/26 06:07:39;;;;;;;;;14.50;12.00;;;;;-145.45;100.00;57426.63;6277632;22;45298;-73
2023/04/26 06:10:06;;;;;;;;;14.50;13.75;;;;;-145.45;100.00;57426.63;6278066;22;45237;-73
2023/04/26 06:12:31;;;;;;;;;13.50;13.50;;;;;-145.45;100.00;57426.63;6221273;22;47042;-71
2023/04/26 06:14:57;;;;;;;;;14.25;12.25;;;;;-145.45;100.00;57426.63;6243951;22;45273;-71
2023/04/26 06:17:22;;;;;;;;;15.00;13.00;;;;;-145.45;100.00;57426.63;6246448;22;45331;-73
2023/04/26 06:19:47;;;;;;;;;17.25;16.00;;;;;-145.45;100.00;57426.63;6246623;22;45369;-73
2023/04/26 06:22:13;;;;;;;;;15.00;13.00;;;;;-145.45;100.00;57426.63;6243527;22;47022;-71
2023/04/26 06:24:38;;;;;;;;;14.00;14.00;;;;;-145.45;100.00;57426.63;6246425;22;53091;-71
2023/04/26 06:27:03;;;;;;;;;20.50;14.50;;;;;-145.45;100.00;57426.63;6243267;22;45157;-71
2023/04/26 06:29:31;;;;;;;;;19.50;17.00;;;;;-145.45;100.00;57426.63;6243562;22;45468;-70
2023/04/26 06:31:57;;;;;;;;;17.75;16.75;;;;;-145.45;100.00;57426.63;6244121;22;47169;-71
2023/04/26 06:34:22;;;;;;;;;21.75;16.25;;;;;-145.45;100.00;57426.63;6246839;22;45234;-72
2023/04/26 06:36:47;;;;;;;;;15.25;12.25;;;;;-145.45;100.00;57426.63;6244542;22;45217;-72
2023/04/26 06:39:12;;;;;;;;;15.50;14.00;;;;;-145.45;100.00;57426.63;6244710;22;45386;-72
2023/04/26 06:41:38;;;;;;;;;17.75;17.25;;;;;-145.45;100.00;57426.63;6246129;22;46754;-73
2023/04/26 06:44:03;;;;;;;;;22.00;16.50;;;;;-145.45;100.00;57426.63;6245756;22;56348;-74
2023/04/26 06:46:29;;;;;;;;;17.00;17.00;;;;;-145.45;100.00;57426.63;6246364;22;45158;-72
2023/04/26 06:48:55;;;;;;;;;16.25;16.25;;;;;-145.45;100.00;57426.63;6246670;22;45498;-71
2023/04/26 06:51:20;;;;;;;;;17.50;14.50;;;;;-145.45;100.00;57426.63;6246871;22;45418;-73
2023/04/26 06:53:47;;;;;;;;;19.50;17.00;;;;;-145.45;100.00;57426.63;6246823;22;45177;-77
2023/04/26 06:56:12;;;;;;;;;20.50;16.50;;;;;-145.45;100.00;57426.63;6246898;22;45136;-73
2023/04/26 06:58:37;;;;;;;;;19.50;17.50;;;;;-145.45;100.00;57426.63;6246025;22;50719;-73
2023/04/26 07:01:04;;;;;;;;;22.00;17.00;;;;;-145.45;100.00;57426.63;6246430;22;46845;-73
2023/04/26 07:03:29;;;;;;;;;31.50;23.00;;;;;-145.45;100.00;57426.63;6246094;22;45215;-78
2023/04/26 07:05:55;;;;;;;;;20.00;18.75;;;;;-145.45;100.00;57426.63;6245953;22;44701;-77
2023/04/26 07:08:21;;;;;;;;;11.00;9.50;;;;;-145.45;100.00;57426.63;6246122;22;45195;-73
2023/04/26 07:10:46;;;;;;;;;16.25;16.25;;;;;-145.45;100.00;57426.63;6244689;22;45750;-73
2023/04/26 07:13:11;;;;;;;;;21.50;14.00;;;;;-145.45;100.00;57426.63;6245117;22;44783;-73
2023/04/26 07:15:36;;;;;;;;;21.00;17.00;;;;;-145.45;100.00;57426.63;6246902;22;45103;-73
2023/04/26 07:18:02;;;;;;;;;18.50;17.50;;;;;-145.45;100.00;57426.63;6243242;22;55371;-74
2023/04/26 07:20:27;;;;;;;;;17.00;15.50;;;;;-145.45;100.00;57426.63;6244490;22;46727;-73
2023/04/26 07:22:52;;;;;;;;;21.50;19.25;;;;;-145.45;100.00;57426.63;6246586;22;45536;-73
2023/04/26 07:25:18;;;;;;;;;21.00;18.00;;;;;-145.45;100.00;57426.63;6247278;22;45328;-74
2023/04/26 07:27:43;;;;;;;;;19.25;18.50;;;;;-145.45;100.00;57426.63;6245764;22;45349;-74
2023/04/26 07:30:09;;;;;;;;;20.00;19.00;;;;;-145.45;100.00;57426.63;6246132;22;45332;-74
2023/04/26 07:32:35;;;;;;;;;21.50;19.00;;;;;-145.45;100.00;57426.63;6246602;22;45208;-74
2023/04/26 07:35:03;;;;;;;;;21.75;19.25;;;;;-145.45;100.00;57426.63;6246626;22;45369;-73
2023/04/26 07:37:28;;;;;;;;;22.25;19.50;;;;;-145.45;100.00;57426.63;6246366;22;45253;-73
2023/04/26 07:39:54;;;;;;;;;20.00;17.25;;;;;-145.45;100.00;57426.63;6246113;22;45550;-73
2023/04/26 07:42:19;;;;;;;;;24.25;21.25;;;;;-145.45;100.00;57426.63;6244827;22;45347;-73
2023/04/26 07:44:47;;;;;;;;;21.50;19.50;;;;;-145.45;100.00;57426.63;6246453;22;45149;-73
2023/04/26 07:47:13;;;;;;;;;28.25;23.25;;;;;-145.45;100.00;57426.63;6245905;22;45279;-71
2023/04/26 07:49:38;;;;;;;;;39.50;29.50;;;;;-145.45;100.00;57426.63;6246701;22;45525;-74
2023/04/26 07:52:03;;;;;;;;;30.00;25.25;;;;;-145.45;100.00;57426.63;6244084;22;45268;-74
2023/04/26 07:54:29;;;;;;;;;25.50;22.00;;;;;-145.45;100.00;57426.63;6246922;22;45300;-73
2023/04/26 07:56:55;;;;;;;;;31.25;23.00;;;;;-145.45;100.00;57426.63;6243872;22;46192;-73
2023/04/26 07:59:21;;;;;;;;;26.50;22.25;;;;;-145.45;100.00;57426.63;6244742;22;47184;-74
2023/04/26 08:01:46;;;;;;;;;27.00;23.75;;;;;-145.45;100.00;57426.63;6246302;22;45294;-73
2023/04/26 08:04:11;;;;;;;;;27.75;24.00;;;;;-145.45;100.00;57426.63;6246606;22;45156;-73
2023/04/26 08:06:38;;;;;;;;;24.25;23.50;;;;;-145.45;100.00;57426.63;6246165;22;45244;-71
2023/04/26 08:09:04;;;;;;;;;22.75;15.50;;;;;-145.45;100.00;57426.63;6246335;22;46458;-71
2023/04/26 08:11:29;;;;;;;;;23.50;21.75;;;;;-145.45;100.00;57426.63;6246082;22;45184;-73
2023/04/26 08:13:55;;;;;;;;;25.50;21.75;;;;;-145.45;100.00;57426.63;6245557;22;45244;-74
2023/04/26 08:16:20;;;;;;;;;20.75;20.75;;;;;-145.45;100.00;57426.63;6246514;22;45114;-73
2023/04/26 08:18:46;;;;;;;;;21.25;16.25;;;;;-145.45;100.00;57426.63;6246294;22;45252;-73
2023/04/26 08:21:11;;;;;;;;;24.50;23.25;;;;;-145.45;100.00;57426.63;6243850;22;45240;-74
2023/04/26 08:23:37;;;;;;;;;20.50;20.25;;;;;-145.45;100.00;57426.63;6246114;22;45232;-74
2023/04/26 08:26:02;;;;;;;;;22.25;20.50;;;;;-145.45;100.00;57426.63;6246162;22;45268;-74
2023/04/26 08:28:28;;;;;;;;;18.50;17.00;;;;;-145.45;100.00;57426.63;6245536;22;45561;-73
2023/04/26 08:30:54;;;;;;;;;23.75;23.75;;;;;-145.45;100.00;57426.63;6246582;22;45255;-73
2023/04/26 08:33:19;;;;;;;;;22.25;22.00;;;;;-145.45;100.00;57426.63;6246398;22;45263;-73
2023/04/26 08:35:45;;;;;;;;;22.50;19.00;;;;;-145.45;100.00;57426.63;6244280;22;46987;-71
2023/04/26 08:38:10;;;;;;;;;21.25;20.25;;;;;-145.45;100.00;57426.63;6245999;22;45285;-71
2023/04/26 08:40:36;;;;;;;;;27.25;22.75;;;;;-145.45;100.00;57426.63;6246471;22;47326;-71
2023/04/26 08:43:01;;;;;;;;;22.00;21.50;;;;;-145.45;100.00;57426.63;6246127;22;45273;-71
2023/04/26 08:45:26;;;;;;;;;24.50;21.50;;;;;-145.45;100.00;57426.63;6244105;22;50347;-74
2023/04/26 08:47:57;;;;;;;;;27.25;24.25;;;;;-145.45;100.00;57426.63;6245568;22;46747;-74
2023/04/26 08:50:23;;;;;;;;;22.50;20.50;;;;;-145.45;100.00;57426.63;6246353;22;45249;-74
2023/04/26 08:52:50;;;;;;;;;22.00;19.50;;;;;-145.45;100.00;57426.63;6243309;22;44760;-72
2023/04/26 08:55:18;;;;;;;;;21.00;20.75;;;;;-145.45;100.00;57426.63;6246075;22;45311;-71
2023/04/26 08:57:48;;;;;;;;;23.00;19.50;;;;;-145.45;100.00;57426.63;6245406;22;45220;-71
2023/04/26 09:00:15;;;;;;;;;21.50;18.50;;;;;-145.45;100.00;57426.63;6245446;22;45199;-71
2023/04/26 09:02:51;;;;;;;;;20.50;19.00;;;;;-145.45;100.00;57426.63;6243780;22;45239;-71
2023/04/26 09:05:17;;;;;;;;;25.25;20.00;;;;;-145.45;100.00;57426.63;6243568;22;46316;-71
2023/04/26 09:07:46;;;;;;;;;18.25;14.75;;;;;-145.45;100.00;57426.63;6245510;22;45526;-71
2023/04/26 09:10:18;;;;;;;;;22.50;19.00;;;;;-145.45;100.00;57426.63;6245786;22;45487;-71
2023/04/26 09:12:44;;;;;;;;;20.75;19.25;;;;;-145.45;100.00;57426.63;6241294;22;45260;-73
2023/04/26 09:15:09;;;;;;;;;12.25;11.25;;;;;-145.45;100.00;57426.63;6245829;22;45197;-72
2023/04/26 09:17:40;;;;;;;;;19.50;17.00;;;;;-145.45;100.00;57426.63;6245558;22;45190;-72
2023/04/26 09:20:24;;;;;;;;;18.75;18.00;;;;;-145.45;100.00;57426.63;6245500;22;44602;-72
2023/04/26 09:22:51;;;;;;;;;18.25;15.25;;;;;-145.45;100.00;57426.63;6245729;22;45204;-72
2023/04/26 09:25:25;;;;;;;;;20.00;17.25;;;;;-145.45;100.00;57426.63;6245004;22;45200;-72
2023/04/26 09:27:50;;;;;;;;;18.67;16.33;;;;;-145.45;100.00;57426.63;6242301;22;46219;-72
2023/04/26 09:30:17;;;;;;;;;18.00;16.75;;;;;-145.45;100.00;57426.63;6246009;22;45302;-72
2023/04/26 09:32:51;;;;;;;;;19.67;17.00;;;;;-145.45;100.00;57426.63;6245679;22;45212;-71
2023/04/26 09:35:31;;;;;;;;;16.33;14.00;;;;;-145.45;100.00;57426.63;6245634;22;45284;-72
2023/04/26 09:38:02;;;;;;;;;18.67;18.00;;;;;-145.45;100.00;57426.63;6245326;22;45364;-72
2023/04/26 09:40:36;;;;;;;;;18.00;16.67;;;;;-145.45;100.00;57426.63;6243744;22;45181;-72
2023/04/26 09:43:04;;;;;;;;;22.33;15.67;;;;;-145.45;100.00;57426.63;6244796;22;45299;-72
2023/04/26 09:45:32;;;;;;;;;18.00;15.33;;;;;-145.45;100.00;57426.63;6245551;22;45402;-72
2023/04/26 09:48:24;;;;;;;;;14.33;13.00;;;;;-145.45;100.00;57426.63;6244886;22;45431;-72
2023/04/26 09:50:53;;;;;;;;;12.00;12.00;;;;;-145.45;100.00;57426.63;6245685;22;45247;-72
2023/04/26 09:53:26;;;;;;;;;16.00;15.67;;;;;-145.45;100.00;57426.63;6243119;22;44726;-72
2023/04/26 09:55:53;;;;;;;;;14.00;13.00;;;;;-145.45;100.00;57426.63;6245558;22;45109;-72
2023/04/26 09:58:19;;;;;;;;;13.67;13.33;;;;;-145.45;100.00;57426.63;6244604;22;45200;-71
2023/04/26 10:00:48;;;;;;;;;14.00;10.67;;;;;-145.45;100.00;57426.63;6245115;22;45308;-71
2023/04/26 10:03:14;;;;;;;;;13.67;11.67;;;;;-145.45;100.00;57426.63;6244595;22;45300;-72
2023/04/26 10:05:40;;;;;;;;;15.00;12.67;;;;;-145.45;100.00;57426.63;6244498;22;46917;-72
2023/04/26 10:08:07;;;;;;;;;16.33;14.00;;;;;-145.45;100.00;57426.63;6243998;22;46843;-72
2023/04/26 10:10:32;;;;;;;;;12.67;11.67;;;;;-145.45;100.00;57426.63;6247126;22;44587;-71
2023/04/26 10:12:59;;;;;;;;;12.33;12.00;;;;;-145.45;100.00;57426.63;6245734;22;45287;-71
2023/04/26 10:15:25;;;;;;;;;13.33;11.33;;;;;-145.45;100.00;57426.63;6246958;22;45469;-72
2023/04/26 10:17:50;;;;;;;;;14.00;11.67;;;;;-145.45;100.00;57426.63;6243980;22;45708;-72
2023/04/26 10:20:19;;;;;;;;;16.00;12.00;;;;;-145.45;100.00;57426.63;6246976;22;45280;-72
2023/04/26 10:22:51;;;;;;;;;16.33;12.00;;;;;-145.45;100.00;57426.63;6244159;22;45224;-72
2023/04/26 10:25:17;;;;;;;;;14.67;11.67;;;;;-145.45;100.00;57426.63;6244022;22;46058;-71
2023/04/26 10:27:42;;;;;;;;;8.67;8.00;;;;;-145.45;100.00;57426.63;6245993;22;45749;-72
2023/04/26 10:30:10;;;;;;;;;10.00;8.67;;;;;-145.45;100.00;57426.63;6247227;22;45200;-72
2023/04/26 10:32:59;;;;;;;;;12.00;9.67;;;;;-145.45;100.00;57426.63;6245761;22;45283;-72
2023/04/26 10:35:26;;;;;;;;;8.00;6.33;;;;;-145.45;100.00;57426.63;6228480;22;45643;-72
2023/04/26 10:38:00;;;;;;;;;10.00;8.00;;;;;-145.45;100.00;57426.63;6246314;22;45318;-72
2023/04/26 10:40:29;;;;;;;;;12.33;10.67;;;;;-145.45;100.00;57426.63;6244988;22;45276;-72
2023/04/26 10:43:19;;;;;;;;;7.67;7.67;;;;;-145.45;100.00;57426.63;6246329;22;45330;-72
2023/04/26 10:45:45;;;;;;;;;9.33;8.33;;;;;-145.45;100.00;57426.63;6246909;22;45199;-73
2023/04/26 10:48:21;;;;;;;;;8.00;8.00;;;;;-145.45;100.00;57426.63;6246357;22;45470;-73
2023/04/26 10:51:07;;;;;;;;;11.33;9.33;;;;;-145.45;100.00;57426.63;6246988;22;45285;-72
2023/04/26 10:53:47;;;;;;;;;9.33;9.33;;;;;-145.45;100.00;57426.63;6244257;22;44732;-73